Time;durP1;ratioP1;P1;durP2;ratioP2;P2;SDS_P1;SDS_P2;PMS_P1;PMS_P2;Temp;Humidity;BMP_temperature;BMP_pressure;BME280_temperature;BME280_humidity;BME280_pressure;Samples;Min_cycle;Max_cycle;Signal;HPM_P1;HPM_P2
2022/06/16 00:01:20;;;;;;;3.55;2.78;;;;;;;15.46;85.24;100892.06;6229858;28;20049;-89
2022/06/16 00:04:23;;;;;;;4.63;3.15;;;;;;;15.40;88.57;100892.63;6237517;28;20042;-88
2022/06/16 00:07:25;;;;;;;3.97;2.47;;;;;;;15.33;91.80;100891.56;6231913;28;20038;-88
2022/06/16 00:10:28;;;;;;;3.33;2.50;;;;;;;15.27;92.86;100885.13;6251900;28;20046;-88
2022/06/16 00:13:39;;;;;;;6.38;3.10;;;;;;;15.22;90.89;100885.56;6252716;28;20042;-89
2022/06/16 00:16:40;;;;;;;4.60;2.85;;;;;;;15.22;94.13;100879.53;6235859;28;20537;-89
2022/06/16 00:19:42;;;;;;;5.97;3.10;;;;;;;15.17;88.87;100879.94;6235292;28;20045;-88
2022/06/16 00:22:46;;;;;;;6.25;2.90;;;;;;;15.15;89.47;100878.44;6249213;28;20133;-89
2022/06/16 00:25:48;;;;;;;4.25;2.53;;;;;;;15.07;92.43;100876.56;6239236;28;20053;-89
2022/06/16 00:28:51;;;;;;;6.25;3.15;;;;;;;15.01;92.61;100869.31;6228893;28;20038;-88
2022/06/16 00:31:53;;;;;;;4.80;3.30;;;;;;;14.93;94.05;100853.53;6239030;28;20061;-88
2022/06/16 00:34:57;;;;;;;4.68;2.80;;;;;;;14.90;94.24;100841.59;6224567;28;20046;-89
2022/06/16 00:37:58;;;;;;;5.55;3.00;;;;;;;14.86;92.22;100841.09;6239947;28;20502;-89
2022/06/16 00:41:01;;;;;;;3.40;2.95;;;;;;;14.81;97.85;100838.06;6236627;28;20128;-89
2022/06/16 00:44:23;;;;;;;4.78;2.97;;;;;;;14.80;98.60;100838.22;6247416;28;20362;-89
2022/06/16 00:47:28;;;;;;;5.03;3.47;;;;;;;14.78;100.00;100838.38;6168693;28;20049;-88
2022/06/16 00:50:30;;;;;;;4.15;2.80;;;;;;;14.81;100.00;100855.50;6183673;28;20483;-89
2022/06/16 00:53:34;;;;;;;3.30;2.80;;;;;;;14.78;96.51;100850.56;6187817;28;20076;-89
2022/06/16 00:56:37;;;;;;;4.32;2.70;;;;;;;14.80;93.60;100846.03;6185291;28;20169;-89
2022/06/16 00:59:40;;;;;;;6.00;2.72;;;;;;;14.79;94.54;100840.00;6183658;28;20062;-89
2022/06/16 01:02:42;;;;;;;6.80;2.67;;;;;;;14.78;96.41;100859.22;6185258;28;20054;-88
2022/06/16 01:05:44;;;;;;;4.72;3.17;;;;;;;14.74;95.54;100878.69;6183883;28;20046;-89
2022/06/16 01:08:51;;;;;;;6.85;2.67;;;;;;;14.69;93.52;100883.50;6166438;28;20046;-88
2022/06/16 01:15:55;;;;;;;4.20;2.85;;;;;;;14.57;88.56;100902.84;6184028;28;20065;-88
2022/06/16 01:19:35;;;;;;;4.55;2.70;;;;;;;14.56;91.53;100882.97;6175941;28;20847;-89
2022/06/16 01:22:54;;;;;;;4.30;2.90;;;;;;;14.63;87.63;100865.81;6183942;28;20042;-88
2022/06/16 01:26:24;;;;;;;6.40;2.72;;;;;;;14.49;92.40;100845.38;6248897;28;20075;-88
2022/06/16 01:29:43;;;;;;;3.97;2.80;;;;;;;14.42;95.17;100834.69;6237374;28;20041;-88
2022/06/16 01:33:19;;;;;;;4.78;2.80;;;;;;;14.40;93.49;100829.59;6237103;28;20386;-88
2022/06/16 01:36:49;;;;;;;4.05;2.60;;;;;;;14.39;95.07;100829.75;6235850;28;20128;-88
2022/06/16 01:40:09;;;;;;;4.95;3.03;;;;;;;14.35;99.32;100841.41;6227148;28;20708;-89
2022/06/16 01:43:23;;;;;;;5.18;2.75;;;;;;;14.38;99.02;100851.53;6234035;28;20784;-88
2022/06/16 01:46:30;;;;;;;4.50;3.00;;;;;;;14.41;96.45;100823.44;6235086;28;20201;-89
2022/06/16 01:49:51;;;;;;;4.13;2.58;;;;;;;14.33;99.34;100786.03;6236369;28;20534;-88
2022/06/16 01:53:02;;;;;;;2.63;2.42;;;;;;;14.31;94.00;100816.59;6251567;28;20075;-88
2022/06/16 01:56:23;;;;;;;4.40;2.78;;;;;;;14.23;97.71;100827.69;6237664;28;20061;-89
2022/06/16 01:59:27;;;;;;;;;;;;;;;14.18;97.75;100858.53;6209241;28;20258;-89
2022/06/16 02:02:32;;;;;;;4.80;2.80;;;;;;;14.17;95.80;100880.31;6255742;28;19925;-89
2022/06/16 02:06:07;;;;;;;5.18;2.90;;;;;;;13.97;97.16;100880.28;6237961;28;20065;-89
2022/06/16 02:09:17;;;;;;;5.80;3.40;;;;;;;13.97;98.29;100884.69;6221608;28;20037;-88
2022/06/16 02:15:58;;;;;;;4.28;2.83;;;;;;;13.95;97.42;100857.97;6247276;28;20140;-89
2022/06/16 02:19:05;;;;;;;4.82;3.00;;;;;;;14.04;96.35;100861.56;6242253;28;20525;-88
2022/06/16 02:22:07;;;;;;;5.20;2.70;;;;;;;14.00;92.95;100868.78;6249420;28;20053;-89
2022/06/16 02:25:11;;;;;;;7.38;3.38;;;;;;;13.99;94.50;100878.38;6240375;28;20043;-89
2022/06/16 02:28:15;;;;;;;5.47;2.83;;;;;;;13.91;96.31;100886.06;6237166;28;20467;-89
2022/06/16 02:31:32;;;;;;;6.18;3.05;;;;;;;13.86;96.88;100884.78;6237697;28;20107;-89
2022/06/16 02:35:13;;;;;;;3.50;2.72;;;;;;;13.85;100.00;100872.75;6217825;28;20144;-89
2022/06/16 02:38:29;;;;;;;4.93;2.88;;;;;;;13.83;100.00;100875.47;6225378;28;20045;-89
2022/06/16 02:41:40;;;;;;;3.20;2.90;;;;;;;13.94;97.95;100861.53;6213080;28;20418;-89
2022/06/16 02:44:51;;;;;;;6.95;3.35;;;;;;;13.84;96.87;100864.13;6219691;28;20212;-89
2022/06/16 02:48:02;;;;;;;4.18;2.67;;;;;;;13.81;100.00;100868.75;6212661;28;20534;-89
2022/06/16 02:51:24;;;;;;;5.65;3.05;;;;;;;13.79;100.00;100861.09;6261201;28;20144;-89
2022/06/16 02:54:38;;;;;;;7.20;3.17;;;;;;;13.84;100.00;100864.13;6241065;28;20045;-89
2022/06/16 02:57:48;;;;;;;4.80;3.15;;;;;;;13.86;96.63;100867.38;6231561;28;20131;-89
2022/06/16 03:01:01;;;;;;;6.65;2.80;;;;;;;13.83;100.00;100856.44;6258682;28;20508;-89
2022/06/16 03:04:18;;;;;;;7.05;2.72;;;;;;;13.85;100.00;100852.75;6233395;28;20050;-89
2022/06/16 03:07:21;;;;;;;5.05;2.85;;;;;;;13.82;100.00;100845.22;6253298;28;20065;-89
2022/06/16 03:10:52;;;;;;;2.92;2.53;;;;;;;13.80;100.00;100849.72;6252947;28;20040;-89
2022/06/16 03:13:56;;;;;;;3.60;2.70;;;;;;;13.77;100.00;100850.00;6248946;28;20049;-89
2022/06/16 03:17:06;;;;;;;5.30;2.83;;;;;;;13.74;100.00;100834.66;6242167;28;20712;-89
2022/06/16 03:20:11;;;;;;;5.05;3.00;;;;;;;13.65;100.00;100818.06;6250370;28;20041;-89
2022/06/16 03:23:13;;;;;;;7.18;3.22;;;;;;;13.77;100.00;100831.78;6243167;28;20052;-89
2022/06/16 03:26:17;;;;;;;6.68;3.10;;;;;;;13.75;100.00;100860.53;6236078;28;20389;-89
2022/06/16 03:29:19;;;;;;;5.95;3.03;;;;;;;13.79;100.00;100869.72;6243847;28;20045;-89
2022/06/16 03:32:22;;;;;;;4.30;3.33;;;;;;;13.74;100.00;100884.09;6242286;28;20487;-89
2022/06/16 03:35:24;;;;;;;3.88;2.95;;;;;;;13.83;100.00;100887.66;6251802;28;20033;-89
2022/06/16 03:41:37;;;;;;;3.17;2.88;;;;;;;13.86;100.00;100906.41;6237790;28;20053;-89
2022/06/16 03:44:40;;;;;;;8.45;2.92;;;;;;;13.85;100.00;100896.16;6245783;28;20061;-89
2022/06/16 03:47:48;;;;;;;3.63;2.80;;;;;;;13.95;100.00;100894.41;6242391;28;20089;-89
2022/06/16 03:50:51;;;;;;;4.57;3.33;;;;;;;13.86;100.00;100885.59;6249701;28;20517;-89
2022/06/16 03:53:53;;;;;;;4.75;2.75;;;;;;;13.89;98.29;100871.53;6241945;28;20132;-89
2022/06/16 03:56:56;;;;;;;4.30;3.08;;;;;;;13.79;99.83;100863.69;6249443;28;20049;-88
2022/06/16 03:59:59;;;;;;;6.30;2.90;;;;;;;13.72;100.00;100868.59;6241625;28;20045;-88
2022/06/16 04:06:43;;;;;;;4.57;3.08;;;;;;;13.70;100.00;100869.69;6216719;28;20494;-89
2022/06/16 04:09:46;;;;;;;4.50;2.70;;;;;;;13.78;100.00;100869.84;6236014;28;20635;-89
2022/06/16 04:12:48;;;;;;;4.95;2.97;;;;;;;13.82;100.00;100888.63;6232731;28;20034;-88
2022/06/16 04:15:57;;;;;;;5.70;3.03;;;;;;;13.81;100.00;100895.59;6246896;28;20604;-89
2022/06/16 04:19:01;;;;;;;6.03;2.92;;;;;;;13.81;100.00;100899.97;6211234;28;20038;-89
2022/06/16 04:22:03;;;;;;;4.68;2.92;;;;;;;13.87;100.00;100891.66;6234516;28;20041;-89
2022/06/16 04:25:14;;;;;;;5.18;3.30;;;;;;;13.95;100.00;100897.00;6227761;28;20078;-87
2022/06/16 04:28:17;;;;;;;3.85;3.15;;;;;;;14.00;100.00;100893.03;6251429;28;20038;-89
2022/06/16 04:31:22;;;;;;;4.57;2.67;;;;;;;14.05;100.00;100903.03;6233407;28;20116;-89
2022/06/16 04:34:24;;;;;;;4.55;3.13;;;;;;;14.16;100.00;100899.50;6243747;28;20050;-89
2022/06/16 04:37:28;;;;;;;4.82;3.50;;;;;;;14.32;100.00;100899.78;6242355;28;20445;-89
2022/06/16 04:40:32;;;;;;;6.90;3.70;;;;;;;14.46;99.86;100905.53;6240715;28;20041;-89
2022/06/16 04:43:51;;;;;;;8.35;3.85;;;;;;;14.51;99.78;100916.38;6252289;28;20148;-90
2022/06/16 04:46:53;;;;;;;5.00;2.78;;;;;;;14.58;100.00;100913.13;6249318;28;20052;-89
2022/06/16 04:49:59;;;;;;;5.15;3.13;;;;;;;14.71;97.50;100917.22;6239454;28;20041;-89
2022/06/16 04:53:01;;;;;;;6.07;2.90;;;;;;;14.75;97.13;100924.63;6252096;28;20042;-89
2022/06/16 04:56:09;;;;;;;4.35;3.20;;;;;;;14.73;96.89;100931.78;6240399;28;20049;-89
2022/06/16 04:59:21;;;;;;;5.50;3.30;;;;;;;14.72;97.17;100940.53;6246202;28;20290;-89
2022/06/16 05:02:31;;;;;;;4.72;3.53;;;;;;;14.70;98.29;100939.84;6230390;28;20064;-89
2022/06/16 05:05:52;;;;;;;;;;;;;;;14.72;98.51;100950.97;6231242;28;20053;-89
2022/06/16 05:09:04;;;;;;;6.15;3.50;;;;;;;14.68;99.26;100949.59;6239928;28;19972;-89
2022/06/16 05:12:28;;;;;;;6.43;3.00;;;;;;;14.68;97.79;100946.97;6240274;28;20054;-89
2022/06/16 05:15:40;;;;;;;4.82;3.10;;;;;;;14.65;100.00;100952.47;6255206;28;20052;-89
2022/06/16 05:19:01;;;;;;;5.40;3.13;;;;;;;14.72;100.00;100956.19;6248700;28;20050;-89
2022/06/16 05:22:27;;;;;;;4.63;3.35;;;;;;;14.78;100.00;100958.25;6245811;28;20049;-89
2022/06/16 05:25:48;;;;;;;6.38;3.22;;;;;;;14.83;100.00;100963.03;6246048;28;20699;-89
2022/06/16 05:29:13;;;;;;;5.78;3.10;;;;;;;14.82;100.00;100966.59;6221026;28;20061;-89
2022/06/16 05:32:37;;;;;;;5.03;3.33;;;;;;;14.84;100.00;100973.31;6242341;28;20054;-89
2022/06/16 05:36:00;;;;;;;3.67;3.35;;;;;;;14.94;100.00;100977.72;6220794;28;20053;-89
2022/06/16 05:39:35;;;;;;;6.97;3.78;;;;;;;15.03;99.86;100987.28;6140663;28;20055;-89
2022/06/16 05:43:09;;;;;;;6.30;3.22;;;;;;;15.17;98.24;100993.88;6135228;28;20508;-89
2022/06/16 05:46:30;;;;;;;5.72;3.40;;;;;;;15.13;100.00;101002.94;6139408;28;20054;-89
2022/06/16 05:49:38;;;;;;;3.60;3.03;;;;;;;15.17;99.45;100997.31;6135221;28;20219;-89
2022/06/16 05:52:44;;;;;;;4.18;3.20;;;;;;;15.19;100.00;101005.00;6145017;28;20047;-89
2022/06/16 05:55:58;;;;;;;4.90;3.60;;;;;;;15.10;100.00;101004.03;6145581;28;20055;-89
2022/06/16 05:59:09;;;;;;;6.18;3.35;;;;;;;15.09;100.00;101002.41;6140024;28;20047;-89
2022/06/16 06:02:20;;;;;;;4.78;3.40;;;;;;;15.16;100.00;101013.91;6121739;29;20469;-89
2022/06/16 06:05:22;;;;;;;5.90;3.50;;;;;;;15.15;99.80;101014.03;6142033;28;20070;-90
2022/06/16 06:18:57;;;;;;;6.45;3.45;;;;;;;15.38;100.00;101011.94;6257950;28;20144;-89
2022/06/16 06:22:03;;;;;;;7.70;3.42;;;;;;;15.47;100.00;101013.72;6258530;28;20051;-89
2022/06/16 06:25:06;;;;;;;6.53;3.47;;;;;;;15.54;100.00;101012.19;6231650;28;20114;-89
2022/06/16 06:28:11;;;;;;;4.78;3.22;;;;;;;15.74;97.39;101033.88;6245936;28;20520;-89
2022/06/16 06:31:13;;;;;;;5.10;3.67;;;;;;;15.82;96.61;101020.91;6235904;28;20048;-89
2022/06/16 06:34:15;;;;;;;4.50;3.20;;;;;;;15.80;95.99;101020.25;6234273;28;20182;-89
2022/06/16 06:37:20;;;;;;;5.97;3.65;;;;;;;15.76;96.88;101018.91;6230151;28;20048;-88
2022/06/16 06:40:32;;;;;;;5.90;3.72;;;;;;;15.73;96.09;101023.59;6240905;28;20616;-89
2022/06/16 06:43:35;;;;;;;6.88;3.63;;;;;;;15.69;98.11;101023.00;6225465;28;20046;-89
2022/06/16 06:46:38;;;;;;;6.05;3.63;;;;;;;15.77;97.17;101020.53;6243762;28;20127;-89
2022/06/16 06:49:39;;;;;;;6.90;3.83;;;;;;;15.79;97.11;101029.03;6243549;28;20045;-89
2022/06/16 06:52:42;;;;;;;7.18;3.50;;;;;;;15.79;97.50;101020.41;6242000;28;20045;-89
2022/06/16 06:55:46;;;;;;;5.95;3.65;;;;;;;15.79;99.59;101031.66;6235627;28;20609;-89
2022/06/16 06:58:49;;;;;;;7.00;3.47;;;;;;;15.87;96.76;101036.97;6225165;28;20038;-89
2022/06/16 07:01:51;;;;;;;9.55;4.07;;;;;;;15.97;95.03;101033.50;6235285;28;20041;-89
2022/06/16 07:04:53;;;;;;;8.60;3.20;;;;;;;15.98;95.52;101045.63;6227436;28;20041;-90
2022/06/16 07:07:58;;;;;;;6.65;3.70;;;;;;;16.03;94.25;101052.06;6230440;28;20069;-91
2022/06/16 07:11:00;;;;;;;5.55;3.55;;;;;;;16.20;92.57;101044.41;6238365;28;20041;-91
2022/06/16 07:14:03;;;;;;;4.85;2.90;;;;;;;16.27;95.02;101041.09;6238522;28;20620;-91
2022/06/16 07:17:05;;;;;;;7.38;3.40;;;;;;;16.56;92.15;101045.31;6242551;28;20106;-89
2022/06/16 07:20:08;;;;;;;8.43;3.67;;;;;;;16.64;89.27;101047.19;6236387;28;20152;-89
2022/06/16 07:23:11;;;;;;;8.20;4.22;;;;;;;16.65;89.18;101047.03;6240774;28;20034;-89
2022/06/16 07:26:13;;;;;;;5.80;3.50;;;;;;;16.49;90.74;101046.84;6243229;28;20499;-89
2022/06/16 07:29:15;;;;;;;6.93;3.05;;;;;;;16.43;91.50;101047.47;6245346;28;20045;-90
2022/06/16 07:32:20;;;;;;;5.85;3.30;;;;;;;16.42;92.11;101046.66;6241351;28;20180;-89
2022/06/16 07:35:23;;;;;;;4.30;3.22;;;;;;;16.53;88.06;101046.41;6238794;28;20056;-90
2022/06/16 07:38:27;;;;;;;4.93;3.17;;;;;;;16.67;86.53;101047.72;6239456;28;20168;-90
2022/06/16 07:41:35;;;;;;;6.22;3.47;;;;;;;16.93;87.17;101057.47;6245234;28;20025;-89
2022/06/16 07:44:39;;;;;;;6.13;3.10;;;;;;;17.29;84.99;101060.88;6241731;28;20061;-90
2022/06/16 07:47:44;;;;;;;7.30;3.17;;;;;;;17.52;84.74;101058.59;6235983;28;20049;-89
2022/06/16 07:50:46;;;;;;;5.10;3.38;;;;;;;17.79;82.31;101073.34;6233905;28;20084;-89
2022/06/16 07:53:48;;;;;;;5.90;3.03;;;;;;;18.00;79.57;101083.44;6242009;28;20037;-89
2022/06/16 07:56:51;;;;;;;4.50;2.83;;;;;;;18.18;80.21;101072.06;6236958;28;20049;-89
2022/06/16 07:59:57;;;;;;;6.85;3.20;;;;;;;18.20;78.67;101077.97;6247992;28;20495;-89
2022/06/16 08:02:59;;;;;;;3.85;2.90;;;;;;;18.16;76.39;101085.34;6235226;28;20608;-89
2022/06/16 08:06:05;;;;;;;4.63;2.75;;;;;;;18.26;77.98;101083.41;6241604;28;20040;-89
2022/06/16 08:09:10;;;;;;;5.72;2.83;;;;;;;18.48;77.59;101079.41;6248071;28;20502;-89
2022/06/16 08:12:13;;;;;;;4.32;2.90;;;;;;;18.71;73.70;101084.88;6243488;28;20171;-90
2022/06/16 08:15:16;;;;;;;6.25;3.30;;;;;;;18.73;70.30;101082.91;6235495;28;20040;-89
2022/06/16 08:18:21;;;;;;;7.28;3.00;;;;;;;18.51;74.71;101081.69;6247567;28;20073;-89
2022/06/16 08:21:23;;;;;;;5.18;2.60;;;;;;;18.29;76.62;101082.28;6245217;28;20041;-89
2022/06/16 08:24:25;;;;;;;7.20;3.08;;;;;;;18.20;76.44;101080.59;6219686;28;20042;-90
2022/06/16 08:27:32;;;;;;;5.07;2.78;;;;;;;18.17;75.79;101073.06;6249452;28;20049;-89
2022/06/16 08:30:35;;;;;;;5.07;2.58;;;;;;;18.20;76.27;101076.16;6249911;28;20033;-90
2022/06/16 08:33:37;;;;;;;5.80;2.88;;;;;;;18.17;75.24;101073.88;6226334;28;20042;-90
2022/06/16 08:36:39;;;;;;;4.97;2.60;;;;;;;18.19;75.42;101071.09;6226315;28;20810;-89
2022/06/16 08:39:41;;;;;;;3.83;3.05;;;;;;;18.22;75.52;101068.16;6238911;28;20148;-90
2022/06/16 08:42:52;;;;;;;6.40;3.10;;;;;;;18.22;74.85;101076.03;6227765;28;20155;-90
2022/06/16 08:45:58;;;;;;;4.70;2.45;;;;;;;18.16;76.74;101082.72;6225056;28;20176;-85
2022/06/16 08:49:14;;;;;;;7.13;2.60;;;;;;;18.08;75.55;101085.28;6240896;28;20080;-90
2022/06/16 08:52:37;;;;;;;4.65;2.75;;;;;;;18.21;76.64;101084.84;6242510;28;20134;-90
2022/06/16 08:55:49;;;;;;;6.22;3.00;;;;;;;18.51;74.59;101097.44;6228786;28;20077;-91
2022/06/16 08:59:02;;;;;;;5.88;2.92;;;;;;;18.71;70.05;101092.72;6231742;28;20037;-91
2022/06/16 09:02:32;;;;;;;4.00;2.30;;;;;;;19.02;73.77;101089.53;6226346;28;20053;-90
2022/06/16 09:06:22;;;;;;;4.35;2.80;;;;;;;19.40;64.99;101097.72;6227254;28;20055;-92
2022/06/16 09:10:15;;;;;;;6.53;2.75;;;;;;;19.35;67.04;101094.78;6185634;28;20050;-90
2022/06/16 09:13:44;;;;;;;5.93;3.15;;;;;;;19.46;65.54;101094.47;6119952;28;20058;-91
2022/06/16 09:17:07;;;;;;;4.55;2.55;;;;;;;19.48;64.82;101094.31;6131991;28;20827;-91
2022/06/16 09:20:26;;;;;;;5.20;2.83;;;;;;;19.54;65.76;101089.19;6130149;28;20159;-91
2022/06/16 09:24:03;;;;;;;5.50;3.17;;;;;;;19.70;64.77;101098.06;6134973;28;20051;-91
2022/06/16 09:27:15;;;;;;;5.22;3.20;;;;;;;19.88;63.23;101100.50;6142096;28;20343;-91
2022/06/16 09:30:20;;;;;;;4.25;2.65;;;;;;;20.21;61.73;101106.47;6134814;28;20062;-93
2022/06/16 09:33:34;;;;;;;3.85;3.05;;;;;;;20.42;59.35;101111.97;6130440;28;20507;-90
2022/06/16 09:36:43;;;;;;;8.27;2.60;;;;;;;20.81;58.29;101099.78;6134769;28;20414;-91
2022/06/16 09:40:02;;;;;;;3.58;2.60;;;;;;;21.24;58.61;101087.81;6122046;28;20063;-90
2022/06/16 09:43:20;;;;;;;4.93;2.80;;;;;;;21.26;55.51;101104.22;6127954;28;20062;-91
2022/06/16 09:46:32;;;;;;;5.22;2.60;;;;;;;20.75;57.53;101109.19;6160476;28;20136;-94
2022/06/16 09:49:42;;;;;;;5.25;2.60;;;;;;;20.76;56.78;101102.13;6199720;28;20078;-91
2022/06/16 09:53:05;;;;;;;6.40;2.47;;;;;;;21.25;57.59;101104.41;6229845;28;20725;-92
2022/06/16 09:56:20;;;;;;;5.20;2.47;;;;;;;21.26;55.97;101106.03;6247867;28;20049;-92
2022/06/16 09:59:34;;;;;;;2.88;2.22;;;;;;;20.77;56.80;101099.34;6236364;28;20656;-92
2022/06/16 10:02:49;;;;;;;5.47;2.60;;;;;;;20.41;58.22;101114.78;6222065;28;20045;-92
2022/06/16 10:06:37;;;;;;;3.45;2.30;;;;;;;20.34;58.53;101114.63;6226014;28;20049;-93
2022/06/16 10:10:15;;;;;;;6.15;3.20;;;;;;;20.45;56.29;101116.06;6220452;28;20407;-91
2022/06/16 10:13:45;;;;;;;4.28;2.17;;;;;;;20.69;54.31;101112.50;6235101;28;20159;-90
2022/06/16 10:16:51;;;;;;;;;;;;;;;21.02;54.54;101114.97;6205999;28;20077;-91
2022/06/16 10:19:55;;;;;;;3.75;2.10;;;;;;;20.97;55.64;101119.94;6235440;28;19925;-91
2022/06/16 10:23:21;;;;;;;2.33;1.30;;;;;;;20.47;55.04;101114.09;6238860;28;20494;-91
2022/06/16 10:26:24;;;;;;;2.97;2.15;;;;;;;20.31;55.48;101114.97;6227618;28;20049;-92
2022/06/16 10:29:32;;;;;;;3.55;2.08;;;;;;;20.47;53.72;101116.72;6226118;28;20451;-92
2022/06/16 10:32:47;;;;;;;5.05;2.03;;;;;;;20.49;53.98;101119.97;6236399;28;20041;-90
2022/06/16 10:36:05;;;;;;;2.25;1.58;;;;;;;20.52;54.37;101119.66;6226587;28;20052;-90
2022/06/16 10:39:21;;;;;;;2.58;1.60;;;;;;;20.54;53.67;101132.63;6219190;28;20058;-91
2022/06/16 10:42:47;;;;;;;2.08;1.60;;;;;;;20.74;50.82;101128.59;6246970;28;20026;-92
2022/06/16 10:46:07;;;;;;;2.03;1.60;;;;;;;20.95;50.63;101130.63;6242354;28;20093;-92
2022/06/16 10:49:23;;;;;;;2.13;1.65;;;;;;;21.11;52.84;101124.41;6227619;28;20098;-92
2022/06/16 10:52:40;;;;;;;5.20;2.58;;;;;;;21.29;52.31;101130.22;6234752;28;20037;-92
2022/06/16 10:55:45;;;;;;;2.90;1.33;;;;;;;21.23;48.94;101140.63;6245217;28;20350;-92
2022/06/16 10:58:56;;;;;;;2.72;1.65;;;;;;;21.05;50.44;101131.22;6235201;28;20057;-92
2022/06/16 11:02:25;;;;;;;3.17;1.70;;;;;;;21.04;50.34;101134.00;6240408;28;20053;-90
2022/06/16 11:05:30;;;;;;;2.88;1.58;;;;;;;21.17;47.68;101139.53;6235456;28;20617;-92
2022/06/16 11:08:38;;;;;;;2.20;1.10;;;;;;;21.16;47.19;101148.41;6238383;28;20396;-91
2022/06/16 11:12:14;;;;;;;3.70;1.73;;;;;;;21.14;46.94;101145.16;6233252;28;20331;-90
2022/06/16 11:15:38;;;;;;;4.68;1.50;;;;;;;21.19;47.70;101158.59;6222849;28;20601;-91
2022/06/16 11:18:43;;;;;;;2.10;1.17;;;;;;;21.29;45.58;101143.38;6247523;28;20046;-91
2022/06/16 11:21:46;;;;;;;2.25;1.30;;;;;;;21.44;46.26;101146.09;6240030;28;20521;-91
2022/06/16 11:25:06;;;;;;;2.40;1.40;;;;;;;21.53;45.51;101146.84;6238078;28;20049;-91
2022/06/16 11:28:14;;;;;;;4.82;1.13;;;;;;;21.65;42.73;101141.97;6244509;28;20046;-90
2022/06/16 11:31:21;;;;;;;1.35;1.15;;;;;;;21.69;44.66;101149.34;6240119;28;20411;-90
2022/06/16 11:34:29;;;;;;;1.35;1.25;;;;;;;21.86;44.75;101157.06;6243499;28;20053;-90
2022/06/16 11:37:44;;;;;;;1.60;1.23;;;;;;;21.98;45.17;101155.63;6226534;28;20045;-90
2022/06/16 11:41:04;;;;;;;1.42;1.33;;;;;;;22.22;42.89;101170.41;6231246;28;20061;-91
2022/06/16 11:44:20;;;;;;;1.27;0.88;;;;;;;22.28;43.14;101164.41;6240121;28;20034;-91
2022/06/16 11:47:59;;;;;;;2.78;1.10;;;;;;;22.39;42.23;101160.50;6234877;28;20037;-91
2022/06/16 11:51:36;;;;;;;2.13;1.13;;;;;;;22.53;41.00;101166.75;6227891;28;20045;-88
2022/06/16 11:55:00;;;;;;;5.25;1.02;;;;;;;22.50;42.63;101160.00;6164982;28;20068;-89
2022/06/16 11:58:16;;;;;;;3.63;1.10;;;;;;;22.27;45.26;101156.69;6168052;28;20059;-90
2022/06/16 12:01:27;;;;;;;1.05;0.90;;;;;;;21.38;43.53;101167.03;6169960;28;20411;-90
2022/06/16 12:04:50;;;;;;;3.35;0.95;;;;;;;21.60;41.14;101158.31;6168483;28;20062;-90
2022/06/16 12:08:02;;;;;;;0.90;0.70;;;;;;;21.93;42.09;101153.53;6171998;28;20050;-90
2022/06/16 12:11:27;;;;;;;2.78;0.90;;;;;;;22.48;43.49;101158.56;6169035;28;20429;-91
2022/06/16 12:15:08;;;;;;;3.03;0.80;;;;;;;22.88;39.14;101149.31;6164528;28;20086;-90
2022/06/16 12:18:39;;;;;;;1.50;1.00;;;;;;;23.15;39.57;101144.28;6170059;28;20642;-90
2022/06/16 12:22:10;;;;;;;1.95;0.95;;;;;;;23.26;38.83;101159.66;6170112;28;20058;-90
2022/06/16 12:25:15;;;;;;;2.58;0.85;;;;;;;23.40;37.23;101157.94;6166863;28;20065;-90
2022/06/16 12:28:41;;;;;;;1.98;0.80;;;;;;;23.46;38.34;101166.94;6146090;28;20515;-90
2022/06/16 12:31:52;;;;;;;1.70;0.98;;;;;;;23.52;39.77;101164.34;6199358;28;20057;-91
2022/06/16 12:35:13;;;;;;;3.20;1.45;;;;;;;23.83;38.53;101166.66;6224230;28;20038;-91
2022/06/16 12:38:22;;;;;;;6.20;2.97;;;;;;;24.20;40.19;101169.94;6227496;28;20498;-91
2022/06/16 12:41:48;;;;;;;1.52;0.90;;;;;;;24.61;38.02;101171.75;6228448;28;20041;-89
2022/06/16 12:44:56;;;;;;;1.02;0.80;;;;;;;24.81;40.20;101173.66;6236076;28;20057;-90
2022/06/16 12:48:04;;;;;;;3.53;1.00;;;;;;;25.06;35.29;101179.22;6228424;28;20542;-94
2022/06/16 12:51:12;;;;;;;1.90;0.98;;;;;;;25.15;36.24;101183.34;6232607;28;20667;-91
2022/06/16 12:54:26;;;;;;;3.13;0.80;;;;;;;25.26;34.81;101189.88;6232742;28;20538;-90
2022/06/16 12:57:37;;;;;;;2.17;0.90;;;;;;;25.18;36.98;101190.91;6234204;28;20046;-91
2022/06/16 13:00:46;;;;;;;1.25;0.80;;;;;;;25.36;35.93;101192.94;6230553;28;20554;-91
2022/06/16 13:04:11;;;;;;;2.55;0.65;;;;;;;25.22;36.43;101196.63;6222286;28;20040;-90
2022/06/16 13:07:16;;;;;;;2.28;0.77;;;;;;;25.33;37.91;101191.53;6225467;28;20045;-90
2022/06/16 13:10:18;;;;;;;1.33;0.80;;;;;;;25.65;34.00;101205.00;6229332;28;20384;-91
2022/06/16 13:13:29;;;;;;;0.80;0.80;;;;;;;25.72;35.57;101199.72;6229807;28;20107;-92
2022/06/16 13:16:35;;;;;;;1.38;0.80;;;;;;;25.69;32.93;101192.13;6236345;28;20053;-94
2022/06/16 13:19:50;;;;;;;3.10;1.00;;;;;;;25.63;34.78;101203.59;6237869;28;20049;-91
2022/06/16 13:22:59;;;;;;;0.77;0.75;;;;;;;25.77;34.51;101195.41;6240190;28;20044;-92
2022/06/16 13:26:25;;;;;;;4.13;1.00;;;;;;;25.65;34.54;101193.59;6231511;28;20165;-91
2022/06/16 13:29:40;;;;;;;0.85;0.70;;;;;;;25.54;33.52;101210.94;6227226;28;20045;-89
2022/06/16 13:32:50;;;;;;;2.25;0.73;;;;;;;25.52;31.68;101207.66;6244330;28;20762;-89
2022/06/16 13:36:08;;;;;;;2.72;1.05;;;;;;;25.72;32.69;101195.22;6234453;28;20172;-90
2022/06/16 13:39:48;;;;;;;0.75;0.73;;;;;;;26.00;31.96;101220.72;6252281;28;20141;-89
2022/06/16 13:42:56;;;;;;;1.42;0.90;;;;;;;25.75;34.68;101215.22;6233545;28;20144;-90
2022/06/16 13:46:01;;;;;;;1.83;0.80;;;;;;;25.73;32.32;101223.34;6237936;28;20087;-90
2022/06/16 13:49:05;;;;;;;0.93;0.77;;;;;;;25.87;32.39;101200.34;6226008;28;20129;-89
2022/06/16 13:52:15;;;;;;;1.90;0.82;;;;;;;26.11;32.01;101200.69;6245357;28;20044;-90
2022/06/16 13:55:32;;;;;;;2.08;1.10;;;;;;;26.23;33.69;101183.09;6227734;28;20045;-89
2022/06/16 13:58:37;;;;;;;1.63;0.80;;;;;;;26.50;31.38;101170.56;6234235;28;20060;-90
2022/06/16 14:02:06;;;;;;;1.10;1.00;;;;;;;26.83;31.24;101172.25;6235521;28;20542;-89
2022/06/16 14:05:09;;;;;;;0.80;0.80;;;;;;;27.03;31.40;101180.94;6236891;28;20581;-90
2022/06/16 14:08:19;;;;;;;2.65;1.00;;;;;;;27.10;30.27;101183.53;6243466;28;20039;-92
2022/06/16 14:11:23;;;;;;;1.13;1.00;;;;;;;27.09;31.93;101176.59;6248903;28;20057;-91
2022/06/16 14:14:28;;;;;;;2.75;0.95;;;;;;;27.14;31.55;101171.47;6239483;28;20040;-90
2022/06/16 14:17:45;;;;;;;0.88;0.80;;;;;;;27.21;30.52;101171.47;6233477;28;20112;-90
2022/06/16 14:20:51;;;;;;;3.17;1.20;;;;;;;27.40;31.83;101169.66;6236845;28;20050;-90
2022/06/16 14:24:02;;;;;;;1.05;1.00;;;;;;;27.37;32.35;101170.91;6224112;28;20462;-91
2022/06/16 14:27:22;;;;;;;4.75;1.77;;;;;;;27.49;31.19;101165.69;6235715;28;20053;-90
2022/06/16 14:30:27;;;;;;;;;;;;;;;27.71;30.86;101172.25;6243605;28;20120;-91
2022/06/16 14:33:47;;;;;;;1.65;1.10;;;;;;;27.47;30.31;101171.22;6248892;28;20309;-90
2022/06/16 14:37:05;;;;;;;1.92;1.40;;;;;;;27.52;31.29;101175.09;6239292;28;20048;-91
2022/06/16 14:40:48;;;;;;;2.42;1.27;;;;;;;27.73;31.06;101174.72;6243038;28;20084;-91
2022/06/16 14:44:15;;;;;;;3.20;0.93;;;;;;;27.99;32.98;101167.50;6169603;28;20153;-90
2022/06/16 14:47:47;;;;;;;3.78;1.38;;;;;;;28.33;30.20;101169.56;6188380;28;20499;-90
2022/06/16 14:50:53;;;;;;;1.38;1.00;;;;;;;28.27;31.53;101165.16;6191404;28;20496;-90
2022/06/16 14:54:19;;;;;;;1.95;1.30;;;;;;;28.27;29.42;101159.00;6185023;28;20046;-89
2022/06/16 14:57:27;;;;;;;4.60;1.17;;;;;;;28.16;31.82;101170.41;6182160;28;20217;-89
2022/06/16 15:00:38;;;;;;;2.28;1.33;;;;;;;28.23;32.08;101166.63;6180955;28;20056;-88
2022/06/16 15:03:45;;;;;;;2.35;1.10;;;;;;;28.32;30.55;101180.44;6179288;28;20531;-89
2022/06/16 15:06:52;;;;;;;3.22;1.60;;;;;;;28.43;29.96;101170.91;6180742;28;20089;-91
2022/06/16 15:09:55;;;;;;;1.00;0.90;;;;;;;28.35;30.20;101177.34;6162715;28;20046;-92
2022/06/16 15:13:00;;;;;;;1.48;1.20;;;;;;;28.39;29.72;101177.72;6182150;28;20385;-89
2022/06/16 15:18:10;;;;;;;2.30;1.10;;;;;;;28.54;29.06;101191.47;6182577;28;20491;-93